Time;durP1;ratioP1;P1;durP2;ratioP2;P2;SDS_P1;SDS_P2;PMS_P1;PMS_P2;Temp;Humidity;BMP_temperature;BMP_pressure;BME280_temperature;BME280_humidity;BME280_pressure;Samples;Min_cycle;Max_cycle;Signal;HPM_P1;HPM_P2
2022/12/31 00:00:07;;;;;;;35.33;18.07;;;;;;;6.00;92.94;99992.18;1798696;79;21018;-75
2022/12/31 00:02:33;;;;;;;42.33;19.60;;;;;;;5.93;93.77;99989.52;1797803;79;21406;-75
2022/12/31 00:05:00;;;;;;;37.35;18.90;;;;;;;5.93;94.42;99992.53;1804903;79;20962;-76
2022/12/31 00:07:27;;;;;;;46.08;19.60;;;;;;;5.95;94.74;99996.88;1814562;79;20951;-75
2022/12/31 00:09:54;;;;;;;44.58;20.50;;;;;;;5.98;94.41;100005.06;1807048;79;20963;-76
2022/12/31 00:12:20;;;;;;;38.55;19.48;;;;;;;5.96;94.39;100000.31;1812932;79;21045;-75
2022/12/31 00:14:47;;;;;;;41.23;20.32;;;;;;;5.97;94.36;100005.50;1785853;78;21017;-75
2022/12/31 00:17:13;;;;;;;39.30;20.12;;;;;;;5.98;94.50;100008.50;1809821;78;21522;-75
2022/12/31 00:19:40;;;;;;;43.70;18.85;;;;;;;6.00;94.57;100007.67;1808610;78;20997;-75
2022/12/31 00:22:06;;;;;;;43.78;22.17;;;;;;;5.98;94.77;100012.81;1810550;78;20929;-75
2022/12/31 00:24:34;;;;;;;41.80;21.30;;;;;;;5.98;94.74;100009.80;1823660;78;21013;-75
2022/12/31 00:27:01;;;;;;;55.03;25.75;;;;;;;6.00;94.57;100014.98;1826884;78;21787;-76
2022/12/31 00:29:27;;;;;;;56.58;26.65;;;;;;;6.02;94.53;100011.98;1799241;78;21003;-79
2022/12/31 00:31:54;;;;;;;52.83;26.17;;;;;;;6.03;94.32;100015.02;1825170;78;20959;-76
2022/12/31 00:34:20;;;;;;;54.63;26.82;;;;;;;6.06;94.08;100015.45;1797534;78;20957;-76
2022/12/31 00:36:47;;;;;;;59.40;27.52;;;;;;;5.99;93.66;100023.59;1825206;78;20943;-75
2022/12/31 00:39:14;;;;;;;58.68;28.62;;;;;;;5.93;93.16;100031.25;1800495;78;21072;-75
2022/12/31 00:41:42;;;;;;;62.33;29.85;;;;;;;5.83;92.77;100033.28;1812328;78;21005;-75
2022/12/31 00:44:11;;;;;;;60.60;29.27;;;;;;;5.73;92.32;100034.91;1827824;78;20973;-75
2022/12/31 00:46:38;;;;;;;58.65;29.40;;;;;;;5.62;92.11;100034.81;1778757;78;21874;-75
2022/12/31 00:49:05;;;;;;;59.98;29.52;;;;;;;5.48;91.81;100037.69;1793558;80;20977;-75
2022/12/31 00:51:32;;;;;;;66.72;30.23;;;;;;;5.38;92.20;100039.30;1824144;78;20946;-75
2022/12/31 00:53:59;;;;;;;60.38;28.20;;;;;;;5.32;92.06;100034.08;1817127;76;20965;-75
2022/12/31 00:56:29;;;;;;;60.10;28.95;;;;;;;5.23;92.19;100033.95;1825140;76;20918;-75
2022/12/31 00:58:58;;;;;;;56.10;27.98;;;;;;;5.15;92.17;100032.17;1819100;78;20949;-75
2022/12/31 01:01:29;;;;;;;59.35;28.47;;;;;;;5.07;92.42;100041.93;1823158;78;20951;-76
2022/12/31 01:04:06;;;;;;;61.20;28.67;;;;;;;4.98;92.50;100037.11;1819611;78;21016;-75
2022/12/31 01:06:34;;;;;;;65.72;28.80;;;;;;;4.91;92.69;100047.31;1825586;78;21033;-75
2022/12/31 01:09:01;;;;;;;62.83;27.82;;;;;;;4.84;92.84;100047.66;1833665;78;20956;-75
2022/12/31 01:11:30;;;;;;;61.53;29.77;;;;;;;4.76;93.01;100051.42;1814862;78;20980;-75
2022/12/31 01:14:01;;;;;;;61.25;26.57;;;;;;;4.67;93.23;100056.44;1829783;78;20983;-75
2022/12/31 01:16:36;;;;;;;64.80;26.23;;;;;;;4.60;93.37;100053.78;1828614;78;21003;-75
2022/12/31 01:19:07;;;;;;;54.93;25.95;;;;;;;4.50;93.04;100044.62;1832033;78;20975;-76
2022/12/31 01:21:36;;;;;;;56.15;24.87;;;;;;;4.49;93.05;100050.59;1828572;78;20964;-75
2022/12/31 01:24:03;;;;;;;56.10;26.55;;;;;;;4.46;93.42;100054.86;1833221;76;20947;-75
2022/12/31 01:26:30;;;;;;;64.47;27.42;;;;;;;4.45;93.49;100052.69;1831620;78;21874;-76
2022/12/31 01:28:56;;;;;;;59.67;26.23;;;;;;;4.45;93.53;100058.27;1829789;76;21436;-75
2022/12/31 01:31:23;;;;;;;53.02;26.30;;;;;;;4.46;93.70;100055.72;1809756;78;20993;-75
2022/12/31 01:33:51;;;;;;;61.25;26.45;;;;;;;4.46;93.80;100055.72;1833107;78;20970;-75
2022/12/31 01:36:23;;;;;;;57.98;26.23;;;;;;;4.48;93.77;100051.89;1822642;76;21072;-75
2022/12/31 01:38:49;;;;;;;59.55;26.17;;;;;;;4.49;93.95;100048.02;1816763;78;21049;-76
2022/12/31 01:41:20;;;;;;;54.50;25.77;;;;;;;4.52;94.19;100049.80;1824027;78;21012;-76
2022/12/31 01:43:58;;;;;;;49.13;25.00;;;;;;;4.56;94.37;100047.70;1814156;76;20978;-75
2022/12/31 01:46:33;;;;;;;63.78;29.27;;;;;;;4.61;94.52;100048.62;1826146;78;20963;-75
2022/12/31 01:49:07;;;;;;;65.85;31.42;;;;;;;4.64;94.31;100058.98;1831844;77;20939;-75
2022/12/31 01:51:34;;;;;;;60.58;29.20;;;;;;;4.66;94.13;100049.56;1819494;78;20970;-75
2022/12/31 01:54:05;;;;;;;64.40;31.10;;;;;;;4.67;93.96;100046.13;1825908;78;21009;-76
2022/12/31 01:56:32;;;;;;;72.85;33.90;;;;;;;4.64;93.40;100046.53;1815989;76;20980;-75
2022/12/31 01:59:00;;;;;;;65.97;31.02;;;;;;;4.54;93.17;100051.97;1805617;78;20974;-75
2022/12/31 02:01:31;;;;;;;63.80;29.50;;;;;;;4.46;93.08;100055.72;1831361;78;21455;-76
2022/12/31 02:04:00;;;;;;;67.20;29.70;;;;;;;4.35;92.74;100046.52;1813342;78;20926;-75
2022/12/31 02:06:43;;;;;;;62.62;28.42;;;;;;;4.29;92.95;100044.29;1832482;78;20916;-76
2022/12/31 02:09:10;;;;;;;59.77;29.98;;;;;;;4.22;93.70;100056.20;1819332;77;21830;-75
2022/12/31 02:11:37;;;;;;;55.08;27.65;;;;;;;4.22;93.70;100056.20;1799797;78;20963;-75
2022/12/31 02:14:12;;;;;;;63.05;29.85;;;;;;;4.19;93.83;100058.29;1833110;78;21021;-75
2022/12/31 02:17:02;;;;;;;66.53;30.23;;;;;;;4.17;93.99;100053.97;1831588;77;20998;-75
2022/12/31 02:20:13;;;;;;;57.03;27.30;;;;;;;4.12;94.48;100046.19;1833663;78;21462;-75
2022/12/31 02:23:04;;;;;;;59.48;29.60;;;;;;;4.12;94.48;100059.05;1825867;78;20962;-75
2022/12/31 02:26:21;;;;;;;63.52;28.90;;;;;;;4.09;95.10;100048.69;1833552;78;20923;-75
2022/12/31 02:29:20;;;;;;;64.75;28.85;;;;;;;4.08;95.17;100048.66;1722780;83;21072;-76
2022/12/31 02:32:00;;;;;;;61.10;27.98;;;;;;;4.04;95.69;100044.30;1739234;81;21073;-75
2022/12/31 02:34:41;;;;;;;69.55;28.73;;;;;;;4.03;95.33;100039.59;1792668;78;20997;-75
2022/12/31 02:37:11;;;;;;;70.10;29.12;;;;;;;4.05;95.40;100048.20;1828225;76;20958;-75
2022/12/31 02:39:39;;;;;;;61.88;26.48;;;;;;;4.07;95.53;100051.66;1830555;76;21005;-75
2022/12/31 02:42:06;;;;;;;64.07;27.52;;;;;;;4.11;95.41;100055.16;1833475;78;21016;-75
2022/12/31 02:44:36;;;;;;;59.42;27.48;;;;;;;4.11;94.81;100052.16;1829026;78;20965;-75
2022/12/31 02:47:14;;;;;;;58.83;25.35;;;;;;;4.10;94.48;100055.59;1831857;78;20970;-74
2022/12/31 02:50:07;;;;;;;64.20;31.87;;;;;;;4.12;94.48;100061.63;1831626;78;21041;-75
2022/12/31 02:53:12;;;;;;;76.50;33.40;;;;;;;4.13;94.56;100067.63;1832391;78;21045;-75
2022/12/31 02:55:50;;;;;;;67.22;31.35;;;;;;;4.20;94.84;100066.91;1829913;78;20974;-75
2022/12/31 03:04:31;;;;;;;67.80;30.20;;;;;;;4.29;94.51;100055.45;1818246;78;20991;-74
2022/12/31 03:07:09;;;;;;;68.42;32.13;;;;;;;4.31;94.37;100058.91;1825457;78;20981;-75
2022/12/31 03:09:36;;;;;;;69.75;32.58;;;;;;;4.29;94.08;100067.03;1830611;78;21033;-75
2022/12/31 03:14:52;;;;;;;75.90;33.28;;;;;;;4.20;94.33;100055.32;1833576;78;20951;-75
2022/12/31 03:17:19;;;;;;;68.37;34.67;;;;;;;4.14;94.36;100063.80;1809489;77;21067;-75
2022/12/31 03:22:35;;;;;;;73.92;32.00;;;;;;;4.03;94.65;100059.31;1810135;78;21584;-76
2022/12/31 03:27:56;;;;;;;70.67;32.63;;;;;;;3.89;94.83;100071.52;1831967;78;21021;-76
2022/12/31 03:30:23;;;;;;;69.50;31.60;;;;;;;3.84;95.16;100087.70;1831794;78;21077;-76
2022/12/31 03:32:51;;;;;;;66.22;31.42;;;;;;;3.78;95.22;100080.77;1806106;78;21568;-75
2022/12/31 03:35:19;;;;;;;63.23;28.35;;;;;;;3.71;94.64;100078.48;1831707;76;22240;-75
2022/12/31 03:37:49;;;;;;;64.82;29.55;;;;;;;3.66;95.20;100081.80;1827960;76;21477;-75
2022/12/31 03:40:16;;;;;;;69.45;28.60;;;;;;;3.65;95.70;100077.52;1821173;76;20963;-76
2022/12/31 03:42:43;;;;;;;62.10;28.75;;;;;;;3.64;95.19;100075.37;1810074;78;21004;-75
2022/12/31 03:45:11;;;;;;;69.30;29.40;;;;;;;3.64;94.67;100080.91;1831189;77;21375;-75
2022/12/31 03:47:37;;;;;;;61.85;28.50;;;;;;;3.64;95.50;100084.77;1833463;78;20914;-74
2022/12/31 03:50:06;;;;;;;59.15;27.77;;;;;;;3.65;95.74;100069.80;1811504;78;20973;-74
2022/12/31 03:52:32;;;;;;;60.80;28.73;;;;;;;3.67;95.42;100067.69;1829503;76;20930;-75
2022/12/31 03:55:00;;;;;;;60.70;28.87;;;;;;;3.69;95.33;100067.30;1779538;77;20982;-75
2022/12/31 03:57:27;;;;;;;65.35;28.05;;;;;;;3.73;95.50;100078.52;1827291;78;20938;-75
2022/12/31 03:59:54;;;;;;;62.45;28.70;;;;;;;3.73;95.58;100079.38;1809512;76;21012;-75
2022/12/31 04:02:21;;;;;;;60.08;27.58;;;;;;;3.77;95.75;100095.73;1832090;78;20973;-75
2022/12/31 04:04:47;;;;;;;65.20;27.13;;;;;;;3.79;95.73;100098.78;1833232;78;20977;-74
2022/12/31 04:07:14;;;;;;;61.55;30.88;;;;;;;3.81;95.44;100104.38;1821865;78;21045;-74
2022/12/31 04:09:41;;;;;;;61.92;29.70;;;;;;;3.77;95.08;100095.31;1833569;76;20977;-75
2022/12/31 04:12:07;;;;;;;60.48;29.80;;;;;;;3.76;95.54;100097.84;1824577;78;21023;-75
2022/12/31 04:14:34;;;;;;;68.22;30.20;;;;;;;3.73;95.70;100102.95;1829119;78;20965;-75
2022/12/31 04:17:01;;;;;;;62.13;30.40;;;;;;;3.72;94.96;100107.23;1823007;78;20994;-75
2022/12/31 04:19:27;;;;;;;64.32;30.30;;;;;;;3.70;95.62;100103.77;1817038;77;20981;-75
2022/12/31 04:21:54;;;;;;;60.08;30.23;;;;;;;3.71;95.85;100102.91;1826154;78;20955;-75
2022/12/31 04:24:20;;;;;;;56.75;27.30;;;;;;;3.71;96.07;100096.48;1835345;78;21462;-75
2022/12/31 04:26:47;;;;;;;66.60;28.20;;;;;;;3.74;97.09;100101.70;1833340;76;21418;-75
2022/12/31 04:29:13;;;;;;;57.88;28.70;;;;;;;3.74;96.22;100098.23;1833456;78;21002;-75
2022/12/31 04:31:41;;;;;;;59.83;29.20;;;;;;;3.74;96.10;100096.95;1833386;76;20953;-75
2022/12/31 04:34:08;;;;;;;63.20;31.70;;;;;;;3.76;96.24;100100.42;1831414;78;21018;-76
2022/12/31 04:36:34;;;;;;;57.98;27.55;;;;;;;3.77;96.00;100099.59;1810931;78;20958;-75
2022/12/31 04:39:01;;;;;;;54.65;27.10;;;;;;;3.79;96.38;100106.92;1829813;78;20958;-75
2022/12/31 04:41:27;;;;;;;57.70;25.57;;;;;;;3.78;95.73;100116.35;1809839;78;21411;-76
2022/12/31 04:43:56;;;;;;;51.73;24.37;;;;;;;3.81;96.47;100122.39;1827384;78;20926;-75
2022/12/31 04:46:29;;;;;;;48.95;23.38;;;;;;;3.83;96.88;100110.42;1804396;78;20980;-75
2022/12/31 04:48:56;;;;;;;51.40;23.50;;;;;;;3.84;96.86;100117.28;1824134;76;20943;-75
2022/12/31 04:51:24;;;;;;;51.30;23.05;;;;;;;3.86;96.66;100123.33;1833570;78;20945;-75
2022/12/31 04:53:51;;;;;;;49.20;22.58;;;;;;;3.89;96.98;100130.69;1830089;78;21013;-75
2022/12/31 04:56:18;;;;;;;52.17;23.05;;;;;;;3.93;96.38;100126.05;1832121;76;20946;-75
2022/12/31 04:58:44;;;;;;;42.00;22.30;;;;;;;3.99;96.70;100122.72;1813693;78;21018;-75
2022/12/31 05:01:12;;;;;;;44.42;22.30;;;;;;;4.07;97.01;100126.72;1829383;76;21343;-75
2022/12/31 05:03:38;;;;;;;49.55;22.32;;;;;;;4.11;96.81;100134.51;1809920;78;20976;-75
2022/12/31 05:06:18;;;;;;;45.63;21.20;;;;;;;4.14;96.88;100137.58;1827236;78;20950;-75
2022/12/31 05:08:45;;;;;;;48.48;22.15;;;;;;;4.19;97.15;100131.64;1830449;78;21543;-75
2022/12/31 05:11:12;;;;;;;48.05;22.90;;;;;;;4.26;97.08;100132.64;1832142;78;21499;-74
2022/12/31 05:13:39;;;;;;;45.45;22.02;;;;;;;4.35;97.22;100139.64;1832743;76;21514;-74
2022/12/31 05:16:06;;;;;;;47.95;21.55;;;;;;;4.43;97.20;100139.77;1833524;78;20953;-75
2022/12/31 05:18:34;;;;;;;63.42;26.25;;;;;;;4.50;96.80;100131.31;1804376;76;21004;-75
2022/12/31 05:21:01;;;;;;;47.25;23.67;;;;;;;4.54;96.56;100139.11;1806550;78;21008;-75
2022/12/31 05:23:27;;;;;;;45.00;23.35;;;;;;;4.60;97.09;100142.64;1821425;78;20980;-74
2022/12/31 05:25:54;;;;;;;44.95;24.47;;;;;;;4.64;97.05;100140.12;1773737;80;21016;-75
2022/12/31 05:28:21;;;;;;;56.35;24.80;;;;;;;4.68;96.86;100138.47;1749920;81;21649;-74
2022/12/31 05:30:49;;;;;;;62.78;26.33;;;;;;;4.72;96.89;100141.53;1769946;80;20961;-75
2022/12/31 05:33:18;;;;;;;61.20;27.95;;;;;;;4.73;96.43;100139.38;1748337;82;21084;-76
2022/12/31 05:35:45;;;;;;;49.40;22.73;;;;;;;4.74;95.97;100141.13;1756299;80;21029;-76
2022/12/31 05:38:12;;;;;;;47.75;23.05;;;;;;;4.72;95.91;100136.38;1750987;81;21042;-75
2022/12/31 05:40:38;;;;;;;40.03;21.40;;;;;;;4.68;95.58;100136.75;1742188;81;20994;-74
2022/12/31 05:43:05;;;;;;;45.35;20.82;;;;;;;4.65;95.86;100144.41;1753815;81;21050;-73
2022/12/31 05:45:32;;;;;;;45.88;21.48;;;;;;;4.63;95.95;100142.66;1735952;81;21033;-76
2022/12/31 05:47:59;;;;;;;42.62;20.82;;;;;;;4.61;95.81;100138.77;1762256;81;21002;-76
2022/12/31 05:50:25;;;;;;;41.10;20.10;;;;;;;4.57;95.26;100140.42;1749063;81;21041;-78
2022/12/31 05:52:53;;;;;;;43.15;19.80;;;;;;;4.52;95.14;100140.79;1761074;81;21002;-75
2022/12/31 05:55:20;;;;;;;35.83;19.25;;;;;;;4.50;95.47;100142.47;1760251;81;21062;-76
2022/12/31 05:57:46;;;;;;;39.67;19.30;;;;;;;4.48;94.92;100156.17;1756484;81;21488;-75
2022/12/31 06:00:14;;;;;;;39.65;18.35;;;;;;;4.46;95.85;100147.56;1731133;81;21034;-75
2022/12/31 06:02:42;;;;;;;35.35;16.02;;;;;;;4.47;96.14;100154.00;1754721;81;21011;-75
2022/12/31 06:05:08;;;;;;;37.38;18.05;;;;;;;4.47;96.44;100156.58;1761921;81;21498;-76
2022/12/31 06:07:35;;;;;;;35.90;17.15;;;;;;;4.48;96.32;100151.88;1758131;81;21327;-76
2022/12/31 06:10:05;;;;;;;41.65;18.45;;;;;;;4.52;96.88;100151.09;1757556;81;20979;-75
2022/12/31 06:12:32;;;;;;;33.88;17.15;;;;;;;4.56;95.78;100150.30;1756444;81;21578;-75
2022/12/31 06:14:58;;;;;;;40.80;17.00;;;;;;;4.59;95.72;100162.34;1760490;81;21031;-75
2022/12/31 06:17:25;;;;;;;40.58;19.52;;;;;;;4.62;95.85;100170.14;1737841;81;20942;-76
2022/12/31 06:19:51;;;;;;;32.53;17.15;;;;;;;4.64;96.39;100176.61;1813864;78;21013;-75
2022/12/31 06:22:18;;;;;;;43.38;20.65;;;;;;;4.67;96.45;100177.50;1821906;78;20973;-76
2022/12/31 06:24:44;;;;;;;38.20;19.52;;;;;;;4.71;96.89;100174.12;1819900;78;21482;-77
2022/12/31 06:27:11;;;;;;;35.38;18.20;;;;;;;4.76;97.46;100175.08;1823969;78;21473;-76
2022/12/31 06:29:38;;;;;;;36.68;18.17;;;;;;;4.81;97.22;100168.70;1811966;78;20978;-75
2022/12/31 06:32:05;;;;;;;35.70;18.10;;;;;;;4.85;97.33;100168.34;1823747;78;20974;-76
2022/12/31 06:34:31;;;;;;;41.40;18.17;;;;;;;4.89;97.19;100162.38;1819681;78;20997;-75
2022/12/31 06:36:58;;;;;;;38.08;19.55;;;;;;;4.94;97.22;100159.47;1823769;78;21874;-75
2022/12/31 06:39:25;;;;;;;44.08;19.80;;;;;;;4.95;96.99;100169.80;1821339;78;21005;-75
2022/12/31 06:41:52;;;;;;;42.70;21.73;;;;;;;5.03;97.19;100169.03;1812688;78;20942;-76
2022/12/31 06:44:21;;;;;;;46.28;21.55;;;;;;;5.08;96.99;100171.27;1820242;78;21890;-75
2022/12/31 06:46:49;;;;;;;83.90;38.55;;;;;;;5.10;96.76;100173.02;1820755;78;20949;-75
2022/12/31 06:49:15;;;;;;;79.92;32.98;;;;;;;5.11;96.17;100176.45;1820964;78;20974;-75
2022/12/31 06:51:44;;;;;;;52.90;25.92;;;;;;;5.11;95.78;100179.02;1759665;80;21038;-75
2022/12/31 06:54:12;;;;;;;44.45;22.05;;;;;;;5.05;95.52;100173.78;1786943;79;20956;-75
2022/12/31 06:56:40;;;;;;;67.15;28.10;;;;;;;4.95;95.06;100171.48;1779236;80;20975;-75
2022/12/31 06:59:15;;;;;;;70.32;30.68;;;;;;;4.92;95.27;100174.04;1777518;80;20983;-75
2022/12/31 07:01:53;;;;;;;60.00;26.20;;;;;;;4.89;95.13;100171.41;1776297;79;21018;-75
2022/12/31 07:04:34;;;;;;;53.95;24.60;;;;;;;4.81;95.73;100173.86;1749927;80;21058;-75
2022/12/31 07:07:20;;;;;;;48.13;23.62;;;;;;;4.79;95.72;100169.10;1774683;80;21558;-75
2022/12/31 07:10:08;;;;;;;57.27;26.10;;;;;;;4.78;95.91;100163.52;1758368;80;21025;-75
2022/12/31 07:13:05;;;;;;;35.60;17.45;;;;;;;4.76;95.29;100177.66;1763529;79;21129;-75
2022/12/31 07:15:46;;;;;;;46.75;20.77;;;;;;;4.72;95.20;100175.87;1783810;79;21011;-75
2022/12/31 07:19:02;;;;;;;42.45;19.17;;;;;;;4.67;95.75;100189.52;1792147;78;21049;-75
2022/12/31 07:21:36;;;;;;;37.20;17.73;;;;;;;4.61;95.02;100182.55;1792879;80;21030;-75
2022/12/31 07:24:05;;;;;;;33.33;17.55;;;;;;;4.58;95.98;100185.95;1785379;80;20969;-75
2022/12/31 07:26:46;;;;;;;33.75;16.57;;;;;;;4.57;95.91;100190.65;1796665;79;21801;-75
2022/12/31 07:29:33;;;;;;;41.33;18.10;;;;;;;4.56;96.54;100191.50;1815149;79;20942;-75
2022/12/31 07:32:24;;;;;;;38.63;19.07;;;;;;;4.57;96.15;100193.66;1803927;79;21810;-76
2022/12/31 07:34:59;;;;;;;36.03;18.15;;;;;;;4.62;96.01;100199.76;1817476;79;20954;-75
2022/12/31 07:37:57;;;;;;;37.03;18.92;;;;;;;4.66;96.35;100201.97;1802660;79;21031;-75
2022/12/31 07:40:46;;;;;;;39.63;19.32;;;;;;;4.74;96.51;100209.41;1817634;79;21479;-75
2022/12/31 07:43:18;;;;;;;40.52;20.75;;;;;;;4.86;97.15;100221.19;1799614;79;20984;-75
2022/12/31 07:46:18;;;;;;;45.92;22.85;;;;;;;4.94;96.57;100223.89;1793562;79;20988;-76
2022/12/31 07:48:45;;;;;;;42.85;22.15;;;;;;;5.03;96.93;100223.16;1800780;78;20949;-75
2022/12/31 07:51:12;;;;;;;47.58;23.80;;;;;;;5.17;97.16;100218.67;1804522;79;21407;-75
2022/12/31 07:53:39;;;;;;;46.02;23.15;;;;;;;5.30;97.09;100220.13;1802177;78;21016;-75
2022/12/31 07:56:08;;;;;;;38.70;21.12;;;;;;;5.35;96.64;100229.67;1785269;79;21122;-75
2022/12/31 07:59:12;;;;;;;38.60;20.10;;;;;;;5.40;96.28;100223.28;1817661;78;21599;-75
2022/12/31 08:01:44;;;;;;;40.98;20.02;;;;;;;5.45;96.25;100223.33;1787169;80;21525;-75
2022/12/31 08:04:52;;;;;;;45.10;21.33;;;;;;;5.49;96.09;100223.81;1771069;81;21071;-75
2022/12/31 08:07:37;;;;;;;45.35;20.52;;;;;;;5.51;95.75;100221.73;1796442;79;21061;-75
2022/12/31 08:10:29;;;;;;;;;;;;;;;5.54;95.84;100219.60;1784972;79;20967;-75
2022/12/31 08:13:00;;;;;;;33.45;18.48;;;;;;;5.58;96.04;100217.50;1816507;79;20093;-75
2022/12/31 08:15:28;;;;;;;36.70;18.70;;;;;;;5.63;95.99;100224.89;1814751;79;20990;-75
2022/12/31 08:17:55;;;;;;;47.55;21.30;;;;;;;5.68;95.97;100224.94;1805829;78;20960;-75
2022/12/31 08:20:21;;;;;;;40.73;19.45;;;;;;;5.73;95.83;100228.03;1797617;79;21845;-75
2022/12/31 08:23:05;;;;;;;38.58;17.48;;;;;;;5.81;95.80;100232.00;1792970;78;20974;-76
2022/12/31 08:25:46;;;;;;;41.92;18.25;;;;;;;5.89;95.57;100230.77;1820689;78;21487;-75
2022/12/31 08:28:37;;;;;;;38.75;18.55;;;;;;;5.94;95.62;100224.83;1820102;79;21498;-76
2022/12/31 08:31:12;;;;;;;38.55;20.00;;;;;;;6.04;95.59;100217.23;1821300;78;20970;-76
2022/12/31 08:33:49;;;;;;;43.98;19.37;;;;;;;6.12;95.51;100217.74;1833003;78;20965;-76
2022/12/31 08:36:33;;;;;;;34.67;17.67;;;;;;;6.21;95.53;100224.75;1809431;78;20942;-76
2022/12/31 08:39:24;;;;;;;35.05;17.12;;;;;;;6.29;95.35;100224.83;1833568;78;21493;-76
2022/12/31 08:41:55;;;;;;;32.60;15.95;;;;;;;6.40;95.26;100223.63;1831131;78;21044;-76
2022/12/31 08:44:44;;;;;;;36.08;16.37;;;;;;;6.53;95.24;100216.02;1832754;78;21067;-75
2022/12/31 08:47:40;;;;;;;38.30;17.67;;;;;;;6.64;95.31;100212.66;1773627;78;21036;-76
2022/12/31 08:50:15;;;;;;;35.85;17.02;;;;;;;6.76;95.33;100220.52;1832886;78;20973;-76
2022/12/31 08:52:42;;;;;;;30.82;16.30;;;;;;;6.88;95.30;100224.48;1828308;78;20979;-75
2022/12/31 08:55:15;;;;;;;33.20;17.07;;;;;;;6.95;95.17;100214.64;1809370;78;21040;-75
2022/12/31 08:58:16;;;;;;;30.77;17.42;;;;;;;7.05;95.29;100216.02;1832046;78;21117;-76
2022/12/31 09:00:43;;;;;;;32.53;17.65;;;;;;;7.16;95.70;100218.22;1815634;78;22190;-77
2022/12/31 09:03:18;;;;;;;36.75;17.52;;;;;;;7.26;95.63;100216.16;1831224;76;21007;-76
2022/12/31 09:06:36;;;;;;;36.70;19.27;;;;;;;7.38;95.42;100219.22;1831436;78;21341;-76
2022/12/31 09:09:23;;;;;;;38.30;21.27;;;;;;;7.48;95.07;100218.85;1806870;78;21008;-75
2022/12/31 09:12:18;;;;;;;39.25;20.82;;;;;;;7.56;94.79;100221.08;1798808;80;21505;-76
2022/12/31 09:14:52;;;;;;;42.27;19.30;;;;;;;7.63;94.56;100213.77;1765441;80;22609;-75
2022/12/31 09:17:43;;;;;;;31.15;15.90;;;;;;;7.70;93.68;100215.53;1787034;80;21017;-76
2022/12/31 09:20:23;;;;;;;28.40;15.38;;;;;;;7.80;93.81;100214.26;1767571;81;21428;-75
2022/12/31 09:22:52;;;;;;;27.40;13.43;;;;;;;7.87;93.89;100209.11;1769683;81;22241;-76
2022/12/31 09:25:21;;;;;;;22.93;12.98;;;;;;;7.97;93.28;100207.42;1769809;81;21029;-75
2022/12/31 09:28:07;;;;;;;23.05;10.85;;;;;;;8.06;92.97;100215.23;1770628;81;20999;-76
2022/12/31 09:30:50;;;;;;;18.82;9.75;;;;;;;8.14;92.89;100203.61;1770665;81;20979;-76
2022/12/31 09:33:48;;;;;;;18.62;9.15;;;;;;;8.25;92.81;100204.47;1770509;81;21042;-75
2022/12/31 09:36:31;;;;;;;19.77;10.30;;;;;;;8.34;92.87;100199.76;1770701;81;21026;-76
2022/12/31 09:39:27;;;;;;;17.40;9.03;;;;;;;8.49;93.26;100188.56;1753485;80;20979;-75
2022/12/31 09:42:20;;;;;;;18.85;9.68;;;;;;;8.62;93.50;100186.42;1769478;81;21048;-75
2022/12/31 09:45:35;;;;;;;23.95;9.90;;;;;;;8.80;92.76;100183.41;1769577;81;21010;-75
2022/12/31 09:48:36;;;;;;;25.12;11.88;;;;;;;8.94;93.21;100181.66;1746866;81;20991;-76
2022/12/31 09:51:31;;;;;;;24.50;13.55;;;;;;;9.05;91.30;100186.41;1800759;79;21003;-76
2022/12/31 09:54:44;;;;;;;29.23;16.30;;;;;;;9.16;91.31;100184.64;1799555;80;21530;-76
2022/12/31 09:57:40;;;;;;;29.85;15.03;;;;;;;9.25;91.36;100183.78;1799544;79;21003;-76
2022/12/31 10:00:19;;;;;;;28.07;14.38;;;;;;;9.35;91.54;100187.19;1766112;81;21046;-75
2022/12/31 10:03:24;;;;;;;27.67;15.98;;;;;;;9.41;91.21;100191.50;1766234;81;21070;-75
2022/12/31 10:06:18;;;;;;;30.32;15.10;;;;;;;9.48;90.20;100189.33;1766308;81;21566;-75
2022/12/31 10:09:12;;;;;;;28.70;15.25;;;;;;;9.59;90.22;100184.09;1766163;81;21046;-76
2022/12/31 10:12:19;;;;;;;23.95;11.88;;;;;;;9.69;89.27;100178.02;1765231;81;21050;-76
2022/12/31 10:15:40;;;;;;;23.20;11.73;;;;;;;9.78;88.58;100182.30;1766524;81;21034;-76
2022/12/31 10:18:47;;;;;;;26.42;12.23;;;;;;;9.84;88.15;100182.27;1715540;83;21065;-76
2022/12/31 10:21:38;;;;;;;20.12;10.85;;;;;;;9.92;88.34;100172.25;1766590;81;21673;-75
2022/12/31 10:24:37;;;;;;;25.52;13.25;;;;;;;10.00;88.07;100160.53;1763328;81;21062;-76
2022/12/31 10:27:35;;;;;;;26.40;13.98;;;;;;;10.01;87.23;100164.87;1766421;81;21078;-76
2022/12/31 10:30:18;;;;;;;29.02;14.40;;;;;;;10.08;88.04;100161.78;1766558;81;21043;-76
2022/12/31 10:33:10;;;;;;;25.88;13.08;;;;;;;10.19;88.62;100160.44;1766485;81;21030;-76
2022/12/31 10:36:08;;;;;;;22.10;11.08;;;;;;;10.28;88.10;100158.61;1766471;81;21105;-76
2022/12/31 10:39:02;;;;;;;18.90;9.75;;;;;;;10.40;87.73;100154.24;1766447;81;21018;-76
2022/12/31 10:41:55;;;;;;;25.12;9.98;;;;;;;10.51;87.63;100156.33;1801390;79;21506;-76
2022/12/31 10:44:47;;;;;;;18.82;8.88;;;;;;;10.57;86.61;100155.42;1800577;78;21010;-76
2022/12/31 10:47:39;;;;;;;19.30;9.88;;;;;;;10.62;86.02;100162.29;1823227;78;21508;-75
2022/12/31 10:50:42;;;;;;;20.00;10.05;;;;;;;10.62;86.30;100163.59;1751004;81;21459;-75
2022/12/31 10:53:38;;;;;;;19.07;9.43;;;;;;;10.63;85.83;100165.78;1759278;81;20981;-75
2022/12/31 10:56:43;;;;;;;19.98;9.85;;;;;;;10.58;85.96;100161.03;1800668;79;21022;-75
2022/12/31 10:59:41;;;;;;;21.40;9.13;;;;;;;10.52;85.93;100153.73;1802406;78;20968;-75
2022/12/31 11:02:37;;;;;;;21.35;10.18;;;;;;;10.54;86.13;100153.28;1822289;78;21004;-76
2022/12/31 11:05:37;;;;;;;19.62;9.83;;;;;;;10.62;86.62;100153.63;1826599;78;21009;-76
2022/12/31 11:08:28;;;;;;;19.55;9.48;;;;;;;10.62;86.05;100147.12;1768015;79;21019;-76
2022/12/31 11:11:31;;;;;;;14.95;8.13;;;;;;;10.70;86.05;100159.63;1811838;78;21011;-76
2022/12/31 11:14:32;;;;;;;12.95;7.30;;;;;;;10.70;85.57;100153.13;1812604;78;21341;-76
2022/12/31 11:17:39;;;;;;;21.93;8.68;;;;;;;10.83;86.59;100157.35;1764921;81;21065;-76
2022/12/31 11:20:44;;;;;;;18.32;9.48;;;;;;;10.80;85.60;100149.56;1812301;79;21015;-75
2022/12/31 11:23:36;;;;;;;16.73;8.80;;;;;;;10.80;84.37;100159.97;1778189;79;21554;-76
2022/12/31 11:26:35;;;;;;;14.73;8.15;;;;;;;10.86;85.33;100170.34;1781910;79;21031;-76
2022/12/31 11:29:41;;;;;;;19.30;8.95;;;;;;;10.84;83.58;100154.30;1810344;79;21014;-76
2022/12/31 11:32:25;;;;;;;20.35;9.43;;;;;;;10.85;83.53;100145.19;1795649;79;21502;-76
2022/12/31 11:35:38;;;;;;;14.38;7.92;;;;;;;10.85;82.90;100140.44;1816867;79;21491;-76
2022/12/31 11:38:33;;;;;;;17.80;7.42;;;;;;;10.87;83.37;100136.94;1814685;79;21033;-76
2022/12/31 11:41:20;;;;;;;11.08;5.87;;;;;;;10.86;83.98;100139.13;1813190;79;21519;-76
2022/12/31 11:44:05;;;;;;;16.17;7.42;;;;;;;10.84;83.00;100133.08;1822475;78;20984;-76
2022/12/31 11:46:37;;;;;;;18.80;10.13;;;;;;;10.94;84.27;100128.62;1825150;78;21063;-76
2022/12/31 11:49:40;;;;;;;18.07;9.03;;;;;;;11.05;82.99;100125.92;1820907;78;20994;-76
2022/12/31 11:52:47;;;;;;;21.68;9.08;;;;;;;11.20;83.48;100134.88;1795027;78;21483;-76
2022/12/31 11:55:50;;;;;;;17.20;8.80;;;;;;;11.34;83.55;100139.48;1825640;78;20993;-76
2022/12/31 11:58:19;;;;;;;23.35;10.10;;;;;;;11.46;82.59;100149.31;1824192;78;20984;-76
2022/12/31 12:01:12;;;;;;;21.95;10.40;;;;;;;11.50;83.44;100140.16;1800196;78;21006;-75
2022/12/31 12:03:42;;;;;;;16.70;9.70;;;;;;;11.46;80.89;100146.70;1811417;78;20954;-75
2022/12/31 12:06:16;;;;;;;21.55;9.53;;;;;;;11.46;81.19;100148.00;1815862;78;20961;-75
2022/12/31 12:08:45;;;;;;;18.57;9.68;;;;;;;11.40;79.92;100145.48;1822822;78;20985;-75
2022/12/31 12:11:22;;;;;;;17.77;9.38;;;;;;;11.40;80.11;100144.17;1813429;78;20967;-75
2022/12/31 12:13:49;;;;;;;17.57;8.73;;;;;;;11.32;80.27;100137.34;1823023;78;20992;-75
2022/12/31 12:16:16;;;;;;;18.80;9.38;;;;;;;11.37;79.67;100134.67;1820862;78;21902;-75